createdAt,value
2022-09-18T00:02:16.319Z,2.13
2022-09-18T00:07:22.964Z,2.10
2022-09-18T00:12:26.987Z,2.50
2022-09-18T00:17:29.837Z,2.87
2022-09-18T00:22:31.745Z,2.07
2022-09-18T00:27:33.474Z,2.20
2022-09-18T00:32:37.694Z,2.33
2022-09-18T00:37:41.098Z,2.53
2022-09-18T00:42:45.436Z,2.20
2022-09-18T00:47:49.263Z,1.60
2022-09-18T00:52:52.737Z,2.43
2022-09-18T00:58:01.626Z,2.63
2022-09-18T01:03:04.394Z,2.47
2022-09-18T01:08:41.786Z,1.93
2022-09-18T01:13:59.339Z,2.10
2022-09-18T01:19:41.534Z,1.93
2022-09-18T01:25:21.704Z,2.50
2022-09-18T01:30:27.016Z,2.23
2022-09-18T01:35:49.861Z,1.93
2022-09-18T01:40:54.810Z,2.50
2022-09-18T01:46:04.392Z,2.55
2022-09-18T01:51:20.858Z,1.77
2022-09-18T01:56:33.745Z,3.70
2022-09-18T02:01:40.498Z,2.63
2022-09-18T02:06:51.790Z,2.70
2022-09-18T02:11:56.649Z,2.27
2022-09-18T02:17:06.432Z,2.33
2022-09-18T02:22:16.629Z,1.97
2022-09-18T02:27:21.888Z,2.20
2022-09-18T02:32:30.001Z,1.50
2022-09-18T02:37:55.085Z,1.90
2022-09-18T02:43:38.613Z,1.90
2022-09-18T02:49:05.421Z,1.73
2022-09-18T02:54:13.310Z,2.00
2022-09-18T02:59:23.394Z,1.83
2022-09-18T03:04:32.572Z,2.57
2022-09-18T03:09:50.087Z,2.73
2022-09-18T03:14:51.932Z,1.87
2022-09-18T03:19:54.122Z,1.87
2022-09-18T03:24:58.487Z,2.00
2022-09-18T03:30:04.606Z,2.07
2022-09-18T03:35:22.528Z,2.30
2022-09-18T03:40:29.375Z,1.73
2022-09-18T03:45:40.580Z,1.60
2022-09-18T03:50:48.634Z,2.00
2022-09-18T03:55:52.932Z,2.50
2022-09-18T04:01:15.514Z,2.00
2022-09-18T04:06:38.556Z,2.33
2022-09-18T04:11:53.102Z,2.33
2022-09-18T04:16:56.537Z,2.30
2022-09-18T04:21:58.482Z,1.60
2022-09-18T04:27:00.318Z,2.33
2022-09-18T04:32:03.330Z,2.30
2022-09-18T04:37:10.166Z,1.90
2022-09-18T04:42:15.533Z,1.77
2022-09-18T04:47:19.664Z,1.97
2022-09-18T04:52:21.667Z,1.90
2022-09-18T04:57:23.600Z,1.93
2022-09-18T05:02:25.519Z,1.50
2022-09-18T05:07:33.847Z,1.53
2022-09-18T05:12:37.876Z,1.73
2022-09-18T05:17:43.175Z,1.57
2022-09-18T05:22:50.302Z,1.93
2022-09-18T05:27:57.515Z,1.60
2022-09-18T05:33:09.524Z,1.90
2022-09-18T05:38:13.954Z,2.23
2022-09-18T05:43:23.473Z,2.20
2022-09-18T05:48:27.463Z,2.47
2022-09-18T05:53:30.258Z,1.70
2022-09-18T05:58:55.713Z,2.00
2022-09-18T06:03:59.690Z,1.70
2022-09-18T06:09:10.762Z,2.20
2022-09-18T06:14:17.705Z,1.93
2022-09-18T06:19:21.387Z,1.77
2022-09-18T06:24:28.987Z,1.40
2022-09-18T06:29:40.809Z,1.73
2022-09-18T06:35:03.921Z,1.70
2022-09-18T06:40:09.159Z,1.50
2022-09-18T06:45:33.905Z,1.63
2022-09-18T06:50:38.110Z,1.53
2022-09-18T06:55:42.381Z,2.43
2022-09-18T07:00:49.071Z,2.53
2022-09-18T07:06:12.814Z,1.67
2022-09-18T07:11:22.001Z,2.10
2022-09-18T07:16:24.076Z,1.57
2022-09-18T07:21:28.385Z,1.47
2022-09-18T07:26:32.828Z,2.20
2022-09-18T07:31:36.032Z,2.27
2022-09-18T07:36:45.928Z,1.85
2022-09-18T07:41:50.067Z,2.00
2022-09-18T07:46:55.415Z,2.30
2022-09-18T07:52:04.398Z,1.60
2022-09-18T07:57:12.796Z,1.90
2022-09-18T08:02:33.281Z,1.90
2022-09-18T08:07:35.665Z,2.45
2022-09-18T08:12:54.155Z,2.20
2022-09-18T08:18:00.599Z,1.80
2022-09-18T08:23:31.121Z,1.60
2022-09-18T08:28:35.420Z,2.30
2022-09-18T08:33:45.008Z,2.67
2022-09-18T08:38:48.789Z,1.98
2022-09-18T08:44:14.141Z,1.90
2022-09-18T08:49:28.141Z,1.70
2022-09-18T08:54:58.623Z,1.50
2022-09-18T09:00:36.702Z,1.35
2022-09-18T09:06:02.118Z,1.50
2022-09-18T09:11:13.471Z,1.45
2022-09-18T09:16:18.656Z,1.88
2022-09-18T09:21:24.810Z,1.45
2022-09-18T09:26:32.265Z,1.00
2022-09-18T09:31:56.226Z,0.90
2022-09-18T09:37:03.816Z,0.80
2022-09-18T09:42:26.438Z,1.02
2022-09-18T09:47:31.217Z,0.77
2022-09-18T09:52:33.797Z,1.40
2022-09-18T09:58:01.095Z,0.90
2022-09-18T10:03:36.948Z,2.10
2022-09-18T10:08:46.753Z,1.38
2022-09-18T10:13:59.703Z,6.40
2022-09-18T10:19:03.872Z,1.88
2022-09-18T10:24:22.430Z,2.15
2022-09-18T10:29:33.775Z,1.30
2022-09-18T10:34:49.736Z,1.50
2022-09-18T10:40:00.037Z,2.00
2022-09-18T10:45:23.956Z,1.73
2022-09-18T10:50:35.039Z,1.52
2022-09-18T10:55:55.642Z,1.75
2022-09-18T11:01:05.776Z,2.53
2022-09-18T11:06:18.959Z,1.48
2022-09-18T11:11:32.352Z,1.58
2022-09-18T11:16:48.676Z,1.23
2022-09-18T11:21:59.499Z,1.30
2022-09-18T11:27:30.339Z,1.60
2022-09-18T11:32:33.791Z,2.13
2022-09-18T11:37:45.395Z,0.80
2022-09-18T11:42:48.948Z,0.85
2022-09-18T11:47:58.642Z,1.70
2022-09-18T11:53:06.753Z,1.42
2022-09-18T11:58:17.168Z,1.60
2022-09-18T12:03:30.632Z,1.40
2022-09-18T12:09:12.457Z,2.00
2022-09-18T12:14:26.061Z,1.63
2022-09-18T12:19:55.455Z,2.75
2022-09-18T12:25:03.358Z,2.10
2022-09-18T12:30:55.155Z,2.10
2022-09-18T12:36:10.496Z,2.60
2022-09-18T12:41:57.645Z,2.53
2022-09-18T12:47:06.296Z,2.00
2022-09-18T12:52:27.920Z,1.65
2022-09-18T12:57:29.591Z,2.00
2022-09-18T13:02:39.400Z,1.88
2022-09-18T13:08:22.369Z,1.80
2022-09-18T13:14:08.623Z,1.83
2022-09-18T13:19:20.557Z,2.08
2022-09-18T13:24:29.998Z,2.45
2022-09-18T13:29:52.839Z,1.70
2022-09-18T13:34:59.101Z,1.55
2022-09-18T13:40:24.995Z,1.92
2022-09-18T13:45:29.953Z,2.22
2022-09-18T13:50:40.331Z,3.00
2022-09-18T13:55:53.450Z,2.80
2022-09-18T14:00:55.315Z,2.10
2022-09-18T14:05:57.832Z,2.50
2022-09-18T14:11:17.571Z,1.95
2022-09-18T14:16:41.054Z,1.90
2022-09-18T14:21:46.563Z,2.22
2022-09-18T14:26:59.684Z,1.88
2022-09-18T14:32:02.452Z,2.13
2022-09-18T14:37:28.567Z,2.22
2022-09-18T14:42:34.230Z,2.45
2022-09-18T14:47:36.111Z,1.88
2022-09-18T14:52:45.346Z,1.30
2022-09-18T14:58:00.172Z,1.10
2022-09-18T15:03:13.886Z,1.33
2022-09-18T15:08:26.475Z,1.17
2022-09-18T15:13:30.087Z,1.90
2022-09-18T15:18:42.250Z,1.80
2022-09-18T15:23:44.759Z,1.77
2022-09-18T15:28:49.261Z,2.08
2022-09-18T15:34:08.099Z,1.20
2022-09-18T15:39:29.132Z,0.90
2022-09-18T15:44:39.679Z,1.63
2022-09-18T15:49:41.352Z,1.80
2022-09-18T15:55:04.289Z,1.55
2022-09-18T16:00:20.325Z,2.38
2022-09-18T16:05:28.292Z,2.00
2022-09-18T16:10:37.158Z,2.22
2022-09-18T16:15:52.187Z,2.63
2022-09-18T16:21:01.687Z,2.55
2022-09-18T16:26:24.706Z,2.95
2022-09-18T16:31:38.714Z,2.70
2022-09-18T16:36:42.290Z,2.20
2022-09-18T16:41:44.500Z,2.88
2022-09-18T16:47:05.413Z,2.83
2022-09-18T16:52:10.695Z,3.00
2022-09-18T16:57:18.257Z,3.88
2022-09-18T17:02:23.298Z,5.22
2022-09-18T17:07:38.366Z,3.55
2022-09-18T17:12:45.252Z,3.85
2022-09-18T17:17:50.565Z,3.35
2022-09-18T17:22:52.759Z,3.85
2022-09-18T17:27:55.157Z,3.53
2022-09-18T17:32:56.924Z,3.38
2022-09-18T17:37:58.640Z,2.75
2022-09-18T17:43:03.986Z,2.03
2022-09-18T17:48:07.830Z,2.63
2022-09-18T17:53:09.699Z,3.30
2022-09-18T17:58:18.373Z,3.28
2022-09-18T18:03:22.644Z,2.50
2022-09-18T18:08:30.121Z,2.63
2022-09-18T18:13:40.272Z,1.83
2022-09-18T18:18:46.294Z,1.73
2022-09-18T18:24:05.774Z,2.85
2022-09-18T18:29:16.191Z,2.05
2022-09-18T18:34:21.102Z,1.90
2022-09-18T18:39:26.074Z,2.60
2022-09-18T18:44:27.982Z,1.10
2022-09-18T18:49:32.905Z,1.13
2022-09-18T18:54:39.574Z,1.05
2022-09-18T18:59:47.061Z,1.00
2022-09-18T19:04:48.944Z,1.52
2022-09-18T19:09:50.739Z,1.20
2022-09-18T19:14:55.164Z,0.90
2022-09-18T19:20:01.812Z,1.30
2022-09-18T19:25:06.653Z,0.93
2022-09-18T19:30:11.361Z,1.25
2022-09-18T19:35:17.034Z,1.58
2022-09-18T19:40:18.839Z,1.73
2022-09-18T19:45:29.686Z,1.10
2022-09-18T19:50:34.420Z,2.10
2022-09-18T19:55:36.258Z,1.40
2022-09-18T20:00:39.882Z,1.40
2022-09-18T20:05:44.353Z,0.90
2022-09-18T20:10:47.198Z,1.40
2022-09-18T20:16:10.608Z,0.70
2022-09-18T20:21:19.372Z,1.23
2022-09-18T20:26:46.302Z,1.23
2022-09-18T20:31:51.047Z,1.60
2022-09-18T20:36:55.205Z,1.10
2022-09-18T20:42:01.940Z,1.00
2022-09-18T20:47:05.270Z,0.90
2022-09-18T20:52:10.288Z,1.17
2022-09-18T20:57:14.531Z,0.70
2022-09-18T21:02:18.227Z,1.20
2022-09-18T21:07:21.463Z,0.98
2022-09-18T21:12:24.896Z,1.20
2022-09-18T21:17:30.510Z,0.82
2022-09-18T21:22:32.231Z,1.00
2022-09-18T21:27:37.544Z,0.90
2022-09-18T21:32:39.695Z,1.25
2022-09-18T21:37:49.799Z,1.00
2022-09-18T21:42:59.219Z,0.90
2022-09-18T21:48:03.184Z,0.80
2022-09-18T21:53:08.624Z,0.77
2022-09-18T21:58:12.009Z,0.98
2022-09-18T22:03:18.289Z,1.00
2022-09-18T22:08:20.069Z,1.00
2022-09-18T22:13:34.929Z,0.95
2022-09-18T22:18:38.170Z,1.15
2022-09-18T22:23:42.870Z,0.93
2022-09-18T22:28:49.592Z,1.65
2022-09-18T22:33:58.397Z,1.33
2022-09-18T22:39:05.027Z,1.13
2022-09-18T22:44:07.284Z,1.58
2022-09-18T22:49:12.056Z,1.55
2022-09-18T22:54:17.736Z,1.15
2022-09-18T22:59:21.796Z,1.27
2022-09-18T23:04:30.181Z,1.45
2022-09-18T23:09:31.970Z,1.20
2022-09-18T23:14:36.194Z,1.42
2022-09-18T23:19:37.930Z,1.33
2022-09-18T23:24:39.912Z,1.05
2022-09-18T23:29:44.041Z,1.00
2022-09-18T23:34:50.403Z,1.48
2022-09-18T23:39:53.227Z,1.27
2022-09-18T23:44:54.985Z,2.10
2022-09-18T23:49:58.981Z,1.63
2022-09-18T23:55:00.677Z,1.40
